createdAt,value
2018-07-09T00:01:48.226Z,8.95
2018-07-09T00:04:15.631Z,6.35
2018-07-09T00:06:43.006Z,6.95
2018-07-09T00:09:10.390Z,8.45
2018-07-09T00:11:37.810Z,10.60
2018-07-09T00:14:05.201Z,6.35
2018-07-09T00:16:32.603Z,6.35
2018-07-09T00:19:00.014Z,8.20
2018-07-09T00:21:27.425Z,7.97
2018-07-09T00:23:54.787Z,7.12
2018-07-09T00:26:22.142Z,7.40
2018-07-09T00:28:49.802Z,6.85
2018-07-09T00:31:17.165Z,8.08
2018-07-09T00:33:44.534Z,7.65
2018-07-09T00:36:11.925Z,9.55
2018-07-09T00:38:39.298Z,7.50
2018-07-09T00:41:06.841Z,9.63
2018-07-09T00:43:34.269Z,7.72
2018-07-09T00:46:01.687Z,7.12
2018-07-09T00:48:29.098Z,7.95
2018-07-09T00:50:56.573Z,7.62
2018-07-09T00:53:24.026Z,8.43
2018-07-09T00:55:51.404Z,7.60
2018-07-09T00:58:18.820Z,8.03
2018-07-09T01:00:46.178Z,9.88
2018-07-09T01:03:13.533Z,9.70
2018-07-09T01:05:40.894Z,7.80
2018-07-09T01:08:08.249Z,10.45
2018-07-09T01:10:40.113Z,8.15
2018-07-09T01:13:07.450Z,8.63
2018-07-09T01:15:34.787Z,8.70
2018-07-09T01:18:02.181Z,11.68
2018-07-09T01:20:29.659Z,7.87
2018-07-09T01:22:57.006Z,8.30
2018-07-09T01:25:24.442Z,9.38
2018-07-09T01:27:51.865Z,8.23
2018-07-09T01:30:19.258Z,8.13
2018-07-09T01:32:46.613Z,9.43
2018-07-09T01:35:14.532Z,8.90
2018-07-09T01:37:42.496Z,9.68
2018-07-09T01:40:10.129Z,8.23
2018-07-09T01:42:37.588Z,10.25
2018-07-09T01:45:05.118Z,10.28
2018-07-09T01:47:32.592Z,8.53
2018-07-09T01:50:00.072Z,8.70
2018-07-09T01:52:27.756Z,9.80
2018-07-09T01:54:55.150Z,10.13
2018-07-09T01:57:22.533Z,9.03
2018-07-09T01:59:49.925Z,9.58
2018-07-09T02:02:17.378Z,9.90
2018-07-09T02:04:44.841Z,10.72
2018-07-09T02:07:12.226Z,10.98
2018-07-09T02:10:42.846Z,12.65
2018-07-09T02:13:10.250Z,11.57
2018-07-09T02:15:37.607Z,10.40
2018-07-09T02:18:05.173Z,11.43
2018-07-09T02:20:32.616Z,11.05
2018-07-09T02:22:59.964Z,11.12
2018-07-09T02:25:27.585Z,10.35
2018-07-09T02:27:55.039Z,9.95
2018-07-09T02:30:22.440Z,11.97
2018-07-09T02:32:49.815Z,11.33
2018-07-09T02:35:17.222Z,11.08
2018-07-09T02:37:44.635Z,9.48
2018-07-09T02:40:12.014Z,14.45
2018-07-09T02:42:39.706Z,12.00
2018-07-09T02:45:07.338Z,11.45
2018-07-09T02:47:34.719Z,13.53
2018-07-09T02:50:02.142Z,10.35
2018-07-09T02:52:29.585Z,13.10
2018-07-09T02:54:56.974Z,10.48
2018-07-09T02:57:24.345Z,11.28
2018-07-09T02:59:51.785Z,15.08
2018-07-09T03:02:19.224Z,12.30
2018-07-09T03:04:46.608Z,14.60
2018-07-09T03:07:14.002Z,15.95
2018-07-09T03:09:41.457Z,13.55
2018-07-09T03:12:08.828Z,14.20
2018-07-09T03:14:36.231Z,14.50
2018-07-09T03:17:03.699Z,16.23
2018-07-09T03:19:31.295Z,18.02
2018-07-09T03:21:59.697Z,14.10
2018-07-09T03:24:27.046Z,17.40
2018-07-09T03:26:54.610Z,16.55
2018-07-09T03:29:21.975Z,15.00
2018-07-09T03:31:49.326Z,14.47
2018-07-09T03:34:16.739Z,17.40
2018-07-09T03:36:44.164Z,15.83
2018-07-09T03:39:11.549Z,17.80
2018-07-09T03:41:38.919Z,13.13
2018-07-09T03:44:06.406Z,13.70
2018-07-09T03:46:33.766Z,15.05
2018-07-09T03:49:01.142Z,15.00
2018-07-09T03:51:28.573Z,13.35
2018-07-09T03:53:55.987Z,12.35
2018-07-09T03:56:23.377Z,15.55
2018-07-09T03:58:50.817Z,13.93
2018-07-09T04:01:18.322Z,16.25
2018-07-09T04:03:45.713Z,15.13
2018-07-09T04:06:13.116Z,15.68
2018-07-09T04:08:40.493Z,13.90
2018-07-09T04:11:07.945Z,15.03
2018-07-09T04:13:35.395Z,14.98
2018-07-09T04:16:02.777Z,18.10
2018-07-09T04:18:30.208Z,15.32
2018-07-09T04:20:57.576Z,15.03
2018-07-09T04:23:25.021Z,15.28
2018-07-09T04:25:52.618Z,14.75
2018-07-09T04:28:20.619Z,14.50
2018-07-09T04:30:48.421Z,18.35
2018-07-09T04:33:18.133Z,13.68
2018-07-09T04:35:45.636Z,17.60
2018-07-09T04:38:13.038Z,13.65
2018-07-09T04:40:40.452Z,14.10
2018-07-09T04:43:07.833Z,18.95
2018-07-09T04:45:35.217Z,15.10
2018-07-09T04:48:02.676Z,16.20
2018-07-09T04:50:30.424Z,15.30
2018-07-09T04:52:57.820Z,14.87
2018-07-09T04:55:25.222Z,18.95
2018-07-09T04:57:52.723Z,17.23
2018-07-09T05:00:20.141Z,17.17
2018-07-09T05:02:47.567Z,19.40
2018-07-09T05:05:15.020Z,17.40
2018-07-09T05:07:42.398Z,15.08
2018-07-09T05:10:09.810Z,18.55
2018-07-09T05:12:37.390Z,16.82
2018-07-09T05:15:04.852Z,20.20
2018-07-09T05:17:32.395Z,17.15
2018-07-09T05:20:00.316Z,19.17
2018-07-09T05:22:34.586Z,18.30
2018-07-09T05:25:01.989Z,15.03
2018-07-09T05:27:29.355Z,17.07
2018-07-09T05:29:56.734Z,15.50
2018-07-09T05:32:24.125Z,14.70
2018-07-09T05:34:51.502Z,15.47
2018-07-09T05:37:18.969Z,15.13
2018-07-09T05:39:46.415Z,17.40
2018-07-09T05:42:13.809Z,16.70
2018-07-09T05:44:41.249Z,14.40
2018-07-09T05:47:09.377Z,14.70
2018-07-09T05:49:36.847Z,14.83
2018-07-09T05:52:04.302Z,13.93
2018-07-09T05:54:31.689Z,14.87
2018-07-09T05:56:59.065Z,13.60
2018-07-09T05:59:26.554Z,13.07
2018-07-09T06:01:54.158Z,13.90
2018-07-09T06:04:21.589Z,12.57
2018-07-09T06:06:49.507Z,12.30
2018-07-09T06:09:16.994Z,13.70
2018-07-09T06:11:44.426Z,12.57
2018-07-09T06:14:11.820Z,12.87
2018-07-09T06:16:39.444Z,14.50
2018-07-09T06:19:06.922Z,13.23
2018-07-09T06:21:34.361Z,11.70
2018-07-09T06:24:02.064Z,10.10
2018-07-09T06:26:29.455Z,10.37
2018-07-09T06:28:56.865Z,9.50
2018-07-09T06:31:24.307Z,9.13
2018-07-09T06:33:52.892Z,7.30
2018-07-09T06:36:20.290Z,7.70
2018-07-09T06:38:47.689Z,6.80
2018-07-09T06:41:15.416Z,8.17
2018-07-09T06:43:43.746Z,8.27
2018-07-09T06:46:11.912Z,8.67
2018-07-09T06:48:40.831Z,7.97
2018-07-09T06:51:09.670Z,8.97
2018-07-09T06:53:37.516Z,9.63
2018-07-09T06:56:08.557Z,10.70
2018-07-09T06:58:36.092Z,9.30
2018-07-09T07:01:06.343Z,9.90
2018-07-09T07:03:34.483Z,9.57
2018-07-09T07:06:05.584Z,9.33
2018-07-09T07:08:33.272Z,9.23
2018-07-09T07:11:01.503Z,9.00
2018-07-09T07:13:28.885Z,9.07
2018-07-09T07:15:56.304Z,8.80
2018-07-09T07:18:23.940Z,9.53
2018-07-09T07:20:51.354Z,9.33
2018-07-09T07:23:18.769Z,9.20
2018-07-09T07:25:46.197Z,9.63
2018-07-09T07:28:13.622Z,8.90
2018-07-09T07:30:41.040Z,8.60
2018-07-09T07:33:08.484Z,9.33
2018-07-09T07:35:35.925Z,9.20
2018-07-09T07:38:03.474Z,9.10
2018-07-09T07:40:30.877Z,7.17
2018-07-09T07:43:00.617Z,7.30
2018-07-09T07:45:28.026Z,8.60
2018-07-09T07:47:55.411Z,8.30
2018-07-09T07:50:22.835Z,7.87
2018-07-09T07:52:50.395Z,7.03
2018-07-09T07:55:17.898Z,7.07
2018-07-09T07:57:45.651Z,7.10
2018-07-09T08:00:13.085Z,7.20
2018-07-09T08:02:40.556Z,6.97
2018-07-09T08:05:07.949Z,7.70
2018-07-09T08:07:35.922Z,8.27
2018-07-09T08:10:03.570Z,8.10
2018-07-09T08:13:01.003Z,8.23
2018-07-09T08:14:58.431Z,7.23
2018-07-09T08:17:25.978Z,8.33
2018-07-09T08:19:53.350Z,8.30
2018-07-09T08:22:20.734Z,7.47
2018-07-09T08:24:48.243Z,8.23
2018-07-09T08:27:15.608Z,9.13
2018-07-09T08:29:42.983Z,8.47
2018-07-09T08:32:10.428Z,8.53
2018-07-09T08:34:37.809Z,8.90
2018-07-09T08:37:05.207Z,8.63
2018-07-09T08:39:32.576Z,9.80
2018-07-09T08:41:59.977Z,8.60
2018-07-09T08:44:27.359Z,8.37
2018-07-09T08:46:54.808Z,8.37
2018-07-09T08:49:22.210Z,8.70
2018-07-09T08:51:49.589Z,8.50
2018-07-09T08:54:17.121Z,8.47
2018-07-09T08:56:44.569Z,9.77
2018-07-09T08:59:11.946Z,8.70
2018-07-09T09:01:39.321Z,8.60
2018-07-09T09:04:06.936Z,8.77
2018-07-09T09:06:34.351Z,8.70
2018-07-09T09:09:01.702Z,9.10
2018-07-09T09:11:29.113Z,8.87
2018-07-09T09:13:56.458Z,8.63
2018-07-09T09:16:23.876Z,9.67
2018-07-09T09:18:51.950Z,8.77
2018-07-09T09:21:19.358Z,8.87
2018-07-09T09:23:46.767Z,9.67
2018-07-09T09:26:14.150Z,10.73
2018-07-09T09:28:41.503Z,10.00
2018-07-09T09:31:08.953Z,10.27
2018-07-09T09:33:36.333Z,10.80
2018-07-09T09:36:03.743Z,10.70
2018-07-09T09:38:31.231Z,10.20
2018-07-09T09:40:58.777Z,10.07
2018-07-09T09:43:26.145Z,11.23
2018-07-09T09:45:53.581Z,9.70
2018-07-09T09:48:20.939Z,9.97
2018-07-09T09:50:48.374Z,8.57
2018-07-09T09:53:15.789Z,9.63
2018-07-09T09:55:43.189Z,9.80
2018-07-09T09:58:10.627Z,10.90
2018-07-09T10:00:43.436Z,10.33
2018-07-09T10:03:10.856Z,10.03
2018-07-09T10:05:38.233Z,10.13
2018-07-09T10:08:05.634Z,9.47
2018-07-09T10:10:32.978Z,9.93
2018-07-09T10:13:00.403Z,11.13
2018-07-09T10:15:27.753Z,9.60
2018-07-09T10:17:55.110Z,9.00
2018-07-09T10:20:22.578Z,11.87
2018-07-09T10:22:49.954Z,9.40
2018-07-09T10:25:17.350Z,9.27
2018-07-09T10:27:44.726Z,9.57
2018-07-09T10:30:12.081Z,11.53
2018-07-09T10:32:39.459Z,9.50
2018-07-09T10:35:06.821Z,9.40
2018-07-09T10:37:34.214Z,10.03
2018-07-09T10:40:01.599Z,10.43
2018-07-09T10:42:29.001Z,10.10
2018-07-09T10:44:56.408Z,10.53
2018-07-09T10:47:23.779Z,10.30
2018-07-09T10:49:51.176Z,9.97
2018-07-09T10:52:18.564Z,9.40
2018-07-09T10:54:45.926Z,9.27
2018-07-09T10:57:13.291Z,9.70
2018-07-09T10:59:40.771Z,8.97
2018-07-09T11:02:08.142Z,9.20
2018-07-09T11:04:35.496Z,9.50
2018-07-09T11:07:03.273Z,8.60
2018-07-09T11:09:30.761Z,8.73
2018-07-09T11:11:58.140Z,9.10
2018-07-09T11:14:25.516Z,11.73
2018-07-09T11:16:52.875Z,8.70
2018-07-09T11:19:20.286Z,9.13
2018-07-09T11:21:47.692Z,9.83
2018-07-09T11:24:15.052Z,9.50
2018-07-09T11:26:42.882Z,9.40
2018-07-09T11:29:10.268Z,9.00
2018-07-09T11:31:37.641Z,9.33
2018-07-09T11:34:05.039Z,10.30
2018-07-09T11:36:32.405Z,9.27
2018-07-09T11:38:59.770Z,9.13
2018-07-09T11:41:27.353Z,8.20
2018-07-09T11:43:54.761Z,7.33
2018-07-09T11:46:22.100Z,9.20
2018-07-09T11:48:49.500Z,7.53
2018-07-09T11:51:16.939Z,10.60
2018-07-09T11:53:44.393Z,10.23
2018-07-09T11:56:11.782Z,6.17
2018-07-09T11:58:39.243Z,5.90
2018-07-09T12:01:06.592Z,7.87
2018-07-09T12:03:34.027Z,6.13
2018-07-09T12:06:01.379Z,18.80
2018-07-09T12:08:28.774Z,13.33
2018-07-09T12:10:56.142Z,9.90
2018-07-09T12:13:23.603Z,11.23
2018-07-09T12:15:50.978Z,7.87
2018-07-09T12:18:18.388Z,7.17
2018-07-09T12:20:45.802Z,8.57
2018-07-09T12:23:13.197Z,6.97
2018-07-09T12:25:40.582Z,8.20
2018-07-09T12:28:07.957Z,7.43
2018-07-09T12:30:35.306Z,6.43
2018-07-09T12:33:02.742Z,6.37
2018-07-09T12:35:30.158Z,6.33
2018-07-09T12:37:58.386Z,6.70
2018-07-09T12:40:25.777Z,6.87
2018-07-09T12:42:53.146Z,7.60
2018-07-09T12:45:20.523Z,6.83
2018-07-09T12:47:48.068Z,7.37
2018-07-09T12:50:15.478Z,7.60
2018-07-09T12:52:42.906Z,6.53
2018-07-09T12:55:10.322Z,7.50
2018-07-09T12:57:37.734Z,5.97
2018-07-09T13:00:05.143Z,9.40
2018-07-09T13:02:32.503Z,10.00
2018-07-09T13:04:59.874Z,7.80
2018-07-09T13:07:27.278Z,6.60
2018-07-09T13:09:54.628Z,6.80
2018-07-09T13:12:28.826Z,6.47
2018-07-09T13:14:57.501Z,7.90
2018-07-09T13:17:24.865Z,11.37
2018-07-09T13:19:52.281Z,8.70
2018-07-09T13:22:20.118Z,9.57
2018-07-09T13:24:47.571Z,5.13
2018-07-09T13:27:15.022Z,4.93
2018-07-09T13:29:42.420Z,4.67
2018-07-09T13:32:09.857Z,5.03
2018-07-09T13:34:37.383Z,7.13
2018-07-09T13:37:05.760Z,5.17
2018-07-09T13:39:33.416Z,4.67
2018-07-09T13:42:00.804Z,5.87
2018-07-09T13:44:28.216Z,4.80
2018-07-09T13:46:55.823Z,4.83
2018-07-09T13:49:23.219Z,5.30
2018-07-09T13:51:50.658Z,5.23
2018-07-09T13:54:18.063Z,4.70
2018-07-09T13:56:45.434Z,3.97
2018-07-09T13:59:12.861Z,4.00
2018-07-09T14:01:40.294Z,5.33
2018-07-09T14:04:07.993Z,5.60
2018-07-09T14:06:35.454Z,4.03
2018-07-09T14:09:02.933Z,3.87
2018-07-09T14:11:30.307Z,4.23
2018-07-09T14:13:57.704Z,3.90
2018-07-09T14:16:25.064Z,4.10
2018-07-09T14:18:52.527Z,6.00
2018-07-09T14:21:19.906Z,3.90
2018-07-09T14:23:47.330Z,4.40
2018-07-09T14:26:14.674Z,6.30
2018-07-09T14:28:42.170Z,4.03
2018-07-09T14:31:09.571Z,5.77
2018-07-09T14:33:36.954Z,4.70
2018-07-09T14:36:04.385Z,3.70
2018-07-09T14:38:31.817Z,4.20
2018-07-09T14:40:59.206Z,3.13
2018-07-09T14:43:26.556Z,4.80
2018-07-09T14:45:53.928Z,4.23
2018-07-09T14:48:21.293Z,5.53
2018-07-09T14:50:48.711Z,5.23
2018-07-09T14:53:16.720Z,4.50
2018-07-09T14:55:44.100Z,5.37
2018-07-09T14:58:11.489Z,5.20
2018-07-09T15:00:38.859Z,4.67
2018-07-09T15:03:06.232Z,6.13
2018-07-09T15:05:33.623Z,4.47
2018-07-09T15:08:00.987Z,6.23
2018-07-09T15:10:28.440Z,4.90
2018-07-09T15:12:55.820Z,6.40
2018-07-09T15:15:23.193Z,8.30
2018-07-09T15:17:50.573Z,9.17
2018-07-09T15:20:18.006Z,4.33
2018-07-09T15:22:45.388Z,7.13
2018-07-09T15:25:12.770Z,4.17
2018-07-09T15:27:40.158Z,7.90
2018-07-09T15:30:07.513Z,5.73
2018-07-09T15:32:35.038Z,6.00
2018-07-09T15:35:02.392Z,6.70
2018-07-09T15:37:29.907Z,13.73
2018-07-09T15:39:57.362Z,5.80
2018-07-09T15:42:24.863Z,4.63
2018-07-09T15:44:52.331Z,6.43
2018-07-09T15:47:19.706Z,8.80
2018-07-09T15:49:47.177Z,10.57
2018-07-09T15:52:14.730Z,6.20
2018-07-09T15:54:42.254Z,7.53
2018-07-09T15:57:09.612Z,6.47
2018-07-09T15:59:37.171Z,8.53
2018-07-09T16:02:04.612Z,6.03
2018-07-09T16:04:31.992Z,7.40
2018-07-09T16:06:59.386Z,7.53
2018-07-09T16:09:26.834Z,11.97
2018-07-09T16:11:54.260Z,10.30
2018-07-09T16:14:21.742Z,8.47
2018-07-09T16:16:49.162Z,8.37
2018-07-09T16:19:16.550Z,7.90
2018-07-09T16:21:43.981Z,12.00
2018-07-09T16:24:11.579Z,8.00
2018-07-09T16:26:39.027Z,11.33
2018-07-09T16:29:06.432Z,10.83
2018-07-09T16:31:33.822Z,6.33
2018-07-09T16:34:01.197Z,6.57
2018-07-09T16:36:28.680Z,6.73
2018-07-09T16:38:56.039Z,10.53
2018-07-09T16:41:23.392Z,9.90
2018-07-09T16:43:50.901Z,7.57
2018-07-09T16:46:18.260Z,8.20
2018-07-09T16:48:45.813Z,9.27
2018-07-09T16:51:13.177Z,9.10
2018-07-09T16:53:40.561Z,7.43
2018-07-09T16:56:07.981Z,12.93
2018-07-09T16:58:35.341Z,9.23
2018-07-09T17:01:02.743Z,6.80
2018-07-09T17:03:30.192Z,6.83
2018-07-09T17:05:57.582Z,4.97
2018-07-09T17:08:24.983Z,5.07
2018-07-09T17:10:52.419Z,9.57
2018-07-09T17:13:19.804Z,11.67
2018-07-09T17:15:47.408Z,7.00
2018-07-09T17:18:14.782Z,10.30
2018-07-09T17:20:42.246Z,15.53
2018-07-09T17:23:09.636Z,5.30
2018-07-09T17:25:36.998Z,6.50
2018-07-09T17:28:04.402Z,5.07
2018-07-09T17:30:31.829Z,9.40
2018-07-09T17:32:59.229Z,9.00
2018-07-09T17:35:26.597Z,6.20
2018-07-09T17:37:54.022Z,7.63
2018-07-09T17:40:21.407Z,4.37
2018-07-09T17:42:48.859Z,7.73
2018-07-09T17:45:16.362Z,8.33
2018-07-09T17:47:43.777Z,5.40
2018-07-09T17:50:11.365Z,6.97
2018-07-09T17:52:38.941Z,4.27
2018-07-09T17:55:06.398Z,8.43
2018-07-09T17:57:33.753Z,6.10
2018-07-09T18:00:01.190Z,5.23
2018-07-09T18:02:28.637Z,6.23
2018-07-09T18:04:56.043Z,5.70
2018-07-09T18:07:23.386Z,6.73
2018-07-09T18:09:50.830Z,5.33
2018-07-09T18:12:18.214Z,8.53
2018-07-09T18:14:45.728Z,9.60
2018-07-09T18:17:13.272Z,8.73
2018-07-09T18:19:40.722Z,7.57
2018-07-09T18:22:08.110Z,6.50
2018-07-09T18:24:35.458Z,7.30
2018-07-09T18:27:02.876Z,6.40
2018-07-09T18:29:30.316Z,11.20
2018-07-09T18:31:57.655Z,5.37
2018-07-09T18:34:25.052Z,10.97
2018-07-09T18:36:52.576Z,8.20
2018-07-09T18:39:19.983Z,7.27
2018-07-09T18:41:47.414Z,8.87
2018-07-09T18:44:14.784Z,5.17
2018-07-09T18:46:42.256Z,5.50
2018-07-09T18:49:09.667Z,7.47
2018-07-09T18:51:37.182Z,5.03
2018-07-09T18:54:04.582Z,5.40
2018-07-09T18:56:32.065Z,6.43
2018-07-09T18:58:59.425Z,7.57
2018-07-09T19:01:26.804Z,7.87
2018-07-09T19:03:54.343Z,5.60
2018-07-09T19:06:26.335Z,6.90
2018-07-09T19:08:53.975Z,10.70
2018-07-09T19:11:21.386Z,7.80
2018-07-09T19:13:48.997Z,7.60
2018-07-09T19:16:16.398Z,8.17
2018-07-09T19:18:49.257Z,7.00
2018-07-09T19:21:23.171Z,5.63
2018-07-09T19:23:50.008Z,7.30
2018-07-09T19:26:16.871Z,8.17
2018-07-09T19:28:43.787Z,5.13
2018-07-09T19:31:10.588Z,10.63
2018-07-09T19:33:38.103Z,9.20
2018-07-09T19:36:05.266Z,5.93
2018-07-09T19:38:32.136Z,4.13
2018-07-09T19:40:59.157Z,4.90
2018-07-09T19:43:25.977Z,5.37
2018-07-09T19:45:52.893Z,4.97
2018-07-09T19:48:19.724Z,12.30
2018-07-09T19:50:47.136Z,6.33
2018-07-09T19:53:14.118Z,8.43
2018-07-09T19:55:41.439Z,6.30
2018-07-09T19:58:08.294Z,7.23
2018-07-09T20:00:35.890Z,5.83
2018-07-09T20:03:02.848Z,5.35
2018-07-09T20:05:29.995Z,6.78
2018-07-09T20:07:56.887Z,7.70
2018-07-09T20:10:29.393Z,4.65
2018-07-09T20:13:01.546Z,4.45
2018-07-09T20:15:33.722Z,6.70
2018-07-09T20:18:00.533Z,5.70
2018-07-09T20:20:27.558Z,6.60
2018-07-09T20:22:56.968Z,8.28
2018-07-09T20:25:24.853Z,7.08
2018-07-09T20:27:52.731Z,7.50
2018-07-09T20:30:20.233Z,5.75
2018-07-09T20:32:47.912Z,7.03
2018-07-09T20:35:15.978Z,11.57
2018-07-09T20:37:43.729Z,6.40
2018-07-09T20:40:10.610Z,8.10
2018-07-09T20:42:38.903Z,8.63
2018-07-09T20:45:06.877Z,5.77
2018-07-09T20:47:35.170Z,7.80
2018-07-09T20:50:02.057Z,6.92
2018-07-09T20:52:29.443Z,8.18
2018-07-09T20:54:57.574Z,11.03
2018-07-09T20:57:25.093Z,7.60
2018-07-09T20:59:52.789Z,6.17
2018-07-09T21:02:19.634Z,7.58
2018-07-09T21:04:48.244Z,7.53
2018-07-09T21:07:15.399Z,4.90
2018-07-09T21:09:44.241Z,6.22
2018-07-09T21:12:13.908Z,7.83
2018-07-09T21:14:41.868Z,7.85
2018-07-09T21:17:09.145Z,4.35
2018-07-09T21:19:37.340Z,6.40
2018-07-09T21:22:05.350Z,10.15
2018-07-09T21:24:34.200Z,7.50
2018-07-09T21:27:01.733Z,6.22
2018-07-09T21:29:29.122Z,8.35
2018-07-09T21:31:56.048Z,6.62
2018-07-09T21:34:25.483Z,7.55
2018-07-09T21:36:52.883Z,7.72
2018-07-09T21:39:19.765Z,8.95
2018-07-09T21:41:48.881Z,4.90
2018-07-09T21:44:17.107Z,7.85
2018-07-09T21:46:44.182Z,6.80
2018-07-09T21:49:12.604Z,5.83
2018-07-09T21:51:40.523Z,6.30
2018-07-09T21:54:08.108Z,5.60
2018-07-09T21:56:36.142Z,7.70
2018-07-09T21:59:04.386Z,7.97
2018-07-09T22:01:31.250Z,11.08
2018-07-09T22:03:59.128Z,11.33
2018-07-09T22:06:28.004Z,8.53
2018-07-09T22:08:55.889Z,7.37
2018-07-09T22:11:23.748Z,7.22
2018-07-09T22:13:50.874Z,6.65
2018-07-09T22:16:19.076Z,8.48
2018-07-09T22:18:47.130Z,12.23
2018-07-09T22:21:15.850Z,6.50
2018-07-09T22:23:42.843Z,8.40
2018-07-09T22:26:11.009Z,6.85
2018-07-09T22:28:37.817Z,7.55
2018-07-09T22:31:05.223Z,7.42
2018-07-09T22:33:32.657Z,7.15
2018-07-09T22:36:00.017Z,4.78
2018-07-09T22:38:27.418Z,6.28
2018-07-09T22:40:54.844Z,5.83
2018-07-09T22:43:27.865Z,12.25
2018-07-09T22:45:55.225Z,5.95
2018-07-09T22:48:22.629Z,8.38
2018-07-09T22:50:50.021Z,7.40
2018-07-09T22:53:17.376Z,9.93
2018-07-09T22:55:50.212Z,8.08
2018-07-09T22:58:17.680Z,5.47
2018-07-09T23:00:45.079Z,5.35
2018-07-09T23:03:15.677Z,11.30
2018-07-09T23:05:43.148Z,6.60
2018-07-09T23:08:10.528Z,10.15
2018-07-09T23:12:46.098Z,8.35
2018-07-09T23:15:22.824Z,15.18
2018-07-09T23:18:54.474Z,5.80
2018-07-09T23:22:28.200Z,6.72
2018-07-09T23:24:55.108Z,5.65
2018-07-09T23:27:21.926Z,4.72
2018-07-09T23:29:48.752Z,5.97
2018-07-09T23:32:15.541Z,7.10
2018-07-09T23:34:42.346Z,8.45
2018-07-09T23:37:09.157Z,5.67
2018-07-09T23:39:35.947Z,9.10
2018-07-09T23:42:02.801Z,6.58
2018-07-09T23:44:29.623Z,7.40
2018-07-09T23:46:56.454Z,9.33
2018-07-09T23:49:23.265Z,4.12
2018-07-09T23:51:50.123Z,6.10
2018-07-09T23:54:16.931Z,5.83
2018-07-09T23:58:54.256Z,12.85
